sensor_id;sensor_type;location;lat;lon;timestamp;pressure;altitude;pressure_sealevel;temperature;humidity
72262;BME280;60173;52.112;8.648;2022-10-16T00:00:37;100130.75;;;11.56;96.94
72262;BME280;60173;52.112;8.648;2022-10-16T00:03:04;100130.63;;;11.61;96.68
72262;BME280;60173;52.112;8.648;2022-10-16T00:05:31;100129.19;;;11.64;96.11
72262;BME280;60173;52.112;8.648;2022-10-16T00:07:58;100130.69;;;11.47;96.38
72262;BME280;60173;52.112;8.648;2022-10-16T00:10:24;100140.16;;;11.50;96.50
72262;BME280;60173;52.112;8.648;2022-10-16T00:12:50;100154.88;;;11.49;96.78
72262;BME280;60173;52.112;8.648;2022-10-16T00:15:17;100146.84;;;11.44;97.19
72262;BME280;60173;52.112;8.648;2022-10-16T00:17:43;100146.84;;;11.44;97.47
72262;BME280;60173;52.112;8.648;2022-10-16T00:20:09;100146.00;;;11.35;98.02
72262;BME280;60173;52.112;8.648;2022-10-16T00:22:36;100141.28;;;11.49;98.14
72262;BME280;60173;52.112;8.648;2022-10-16T00:25:02;100136.31;;;11.51;98.61
72262;BME280;60173;52.112;8.648;2022-10-16T00:27:29;100144.78;;;11.49;98.82
72262;BME280;60173;52.112;8.648;2022-10-16T00:29:55;100148.81;;;11.52;98.99
72262;BME280;60173;52.112;8.648;2022-10-16T00:32:21;100146.56;;;11.54;99.08
72262;BME280;60173;52.112;8.648;2022-10-16T00:34:48;100143.72;;;11.59;99.02
72262;BME280;60173;52.112;8.648;2022-10-16T00:37:14;100146.19;;;11.69;98.81
72262;BME280;60173;52.112;8.648;2022-10-16T00:39:41;100144.59;;;11.77;98.51
72262;BME280;60173;52.112;8.648;2022-10-16T00:42:14;100139.78;;;11.74;98.37
72262;BME280;60173;52.112;8.648;2022-10-16T00:44:51;100143.59;;;11.64;98.36
72262;BME280;60173;52.112;8.648;2022-10-16T00:47:26;100135.56;;;11.59;98.60
72262;BME280;60173;52.112;8.648;2022-10-16T00:49:59;100149.28;;;11.54;98.79
72262;BME280;60173;52.112;8.648;2022-10-16T00:52:27;100142.13;;;11.58;98.75
72262;BME280;60173;52.112;8.648;2022-10-16T00:54:55;100128.69;;;11.62;98.66
72262;BME280;60173;52.112;8.648;2022-10-16T00:57:22;100134.63;;;11.64;98.30
72262;BME280;60173;52.112;8.648;2022-10-16T00:59:49;100143.78;;;11.45;98.47
72262;BME280;60173;52.112;8.648;2022-10-16T01:02:16;100149.13;;;11.28;98.46
72262;BME280;60173;52.112;8.648;2022-10-16T01:04:50;100151.72;;;11.33;98.54
72262;BME280;60173;52.112;8.648;2022-10-16T01:07:45;100150.38;;;11.22;98.58
72262;BME280;60173;52.112;8.648;2022-10-16T01:10:34;100146.78;;;11.13;98.62
72262;BME280;60173;52.112;8.648;2022-10-16T01:13:06;100148.22;;;11.10;98.84
72262;BME280;60173;52.112;8.648;2022-10-16T01:15:44;100149.69;;;11.39;98.17
72262;BME280;60173;52.112;8.648;2022-10-16T01:21:08;100171.75;;;11.37;97.18
72262;BME280;60173;52.112;8.648;2022-10-16T01:29:20;100168.59;;;11.21;98.10
72262;BME280;60173;52.112;8.648;2022-10-16T01:31:56;100169.34;;;11.13;98.42
72262;BME280;60173;52.112;8.648;2022-10-16T01:34:33;100172.06;;;11.13;98.50
72262;BME280;60173;52.112;8.648;2022-10-16T01:37:07;100164.16;;;11.03;98.69
72262;BME280;60173;52.112;8.648;2022-10-16T01:39:38;100166.06;;;11.02;99.03
72262;BME280;60173;52.112;8.648;2022-10-16T01:42:11;100162.97;;;10.95;99.30
72262;BME280;60173;52.112;8.648;2022-10-16T01:44:40;100172.06;;;10.91;99.37
72262;BME280;60173;52.112;8.648;2022-10-16T01:47:09;100179.19;;;10.86;99.47
72262;BME280;60173;52.112;8.648;2022-10-16T01:49:38;100177.09;;;10.83;99.50
72262;BME280;60173;52.112;8.648;2022-10-16T01:52:09;100181.41;;;10.84;99.88
72262;BME280;60173;52.112;8.648;2022-10-16T01:54:40;100178.91;;;10.88;100.00
72262;BME280;60173;52.112;8.648;2022-10-16T01:57:08;100178.59;;;10.90;100.00
72262;BME280;60173;52.112;8.648;2022-10-16T01:59:40;100181.91;;;10.86;100.00
72262;BME280;60173;52.112;8.648;2022-10-16T02:02:10;100177.50;;;10.91;100.00
72262;BME280;60173;52.112;8.648;2022-10-16T02:04:40;100175.25;;;10.93;100.00
72262;BME280;60173;52.112;8.648;2022-10-16T02:07:09;100180.88;;;10.96;100.00
72262;BME280;60173;52.112;8.648;2022-10-16T02:09:36;100177.06;;;10.97;100.00
72262;BME280;60173;52.112;8.648;2022-10-16T02:12:10;100182.31;;;10.94;100.00
72262;BME280;60173;52.112;8.648;2022-10-16T02:14:39;100177.97;;;10.93;100.00
72262;BME280;60173;52.112;8.648;2022-10-16T02:17:14;100176.38;;;10.92;100.00
72262;BME280;60173;52.112;8.648;2022-10-16T02:19:42;100170.63;;;10.93;100.00
72262;BME280;60173;52.112;8.648;2022-10-16T02:22:12;100170.31;;;10.95;100.00
72262;BME280;60173;52.112;8.648;2022-10-16T02:24:58;100173.69;;;10.78;100.00
72262;BME280;60173;52.112;8.648;2022-10-16T02:27:53;100171.41;;;10.71;100.00
72262;BME280;60173;52.112;8.648;2022-10-16T02:30:33;100167.66;;;10.67;100.00
72262;BME280;60173;52.112;8.648;2022-10-16T02:33:05;100165.88;;;10.76;100.00
72262;BME280;60173;52.112;8.648;2022-10-16T02:35:33;100158.91;;;10.70;100.00
72262;BME280;60173;52.112;8.648;2022-10-16T02:38:00;100157.81;;;10.71;100.00
72262;BME280;60173;52.112;8.648;2022-10-16T02:40:27;100162.13;;;10.72;100.00
72262;BME280;60173;52.112;8.648;2022-10-16T02:42:54;100165.44;;;10.83;100.00
72262;BME280;60173;52.112;8.648;2022-10-16T02:45:22;100161.59;;;10.84;100.00
72262;BME280;60173;52.112;8.648;2022-10-16T02:47:49;100157.81;;;10.71;100.00
72262;BME280;60173;52.112;8.648;2022-10-16T02:50:16;100165.56;;;10.64;100.00
72262;BME280;60173;52.112;8.648;2022-10-16T02:52:42;100182.38;;;10.66;100.00
72262;BME280;60173;52.112;8.648;2022-10-16T02:55:08;100180.00;;;10.51;100.00
72262;BME280;60173;52.112;8.648;2022-10-16T02:57:35;100179.59;;;10.44;100.00
72262;BME280;60173;52.112;8.648;2022-10-16T03:00:01;100171.53;;;10.38;100.00
72262;BME280;60173;52.112;8.648;2022-10-16T03:02:28;100174.69;;;10.32;100.00
72262;BME280;60173;52.112;8.648;2022-10-16T03:04:54;100175.47;;;10.32;100.00
72262;BME280;60173;52.112;8.648;2022-10-16T03:07:20;100173.38;;;10.29;100.00
72262;BME280;60173;52.112;8.648;2022-10-16T03:09:47;100172.34;;;10.25;100.00
72262;BME280;60173;52.112;8.648;2022-10-16T03:12:13;100180.78;;;10.24;100.00
72262;BME280;60173;52.112;8.648;2022-10-16T03:14:39;100182.69;;;10.23;100.00
72262;BME280;60173;52.112;8.648;2022-10-16T03:17:06;100181.59;;;10.24;100.00
72262;BME280;60173;52.112;8.648;2022-10-16T03:19:32;100184.41;;;10.19;100.00
72262;BME280;60173;52.112;8.648;2022-10-16T03:21:58;100185.50;;;10.18;100.00
72262;BME280;60173;52.112;8.648;2022-10-16T03:24:25;100177.88;;;10.20;100.00
72262;BME280;60173;52.112;8.648;2022-10-16T03:26:51;100181.03;;;10.27;100.00
72262;BME280;60173;52.112;8.648;2022-10-16T03:29:17;100180.41;;;10.30;100.00
72262;BME280;60173;52.112;8.648;2022-10-16T03:31:44;100179.00;;;10.33;100.00
72262;BME280;60173;52.112;8.648;2022-10-16T03:34:10;100168.63;;;10.49;100.00
72262;BME280;60173;52.112;8.648;2022-10-16T03:36:36;100167.50;;;10.50;100.00
72262;BME280;60173;52.112;8.648;2022-10-16T03:39:03;100166.72;;;10.49;100.00
72262;BME280;60173;52.112;8.648;2022-10-16T03:41:29;100186.03;;;10.48;100.00
72262;BME280;60173;52.112;8.648;2022-10-16T03:43:55;100179.28;;;10.45;100.00
72262;BME280;60173;52.112;8.648;2022-10-16T03:46:22;100181.22;;;10.45;100.00
72262;BME280;60173;52.112;8.648;2022-10-16T03:48:48;100178.97;;;10.47;100.00
72262;BME280;60173;52.112;8.648;2022-10-16T03:51:15;100188.06;;;10.42;100.00
72262;BME280;60173;52.112;8.648;2022-10-16T03:53:41;100186.94;;;10.43;100.00
72262;BME280;60173;52.112;8.648;2022-10-16T03:56:07;100180.91;;;10.46;100.00
72262;BME280;60173;52.112;8.648;2022-10-16T03:58:33;100184.13;;;10.48;100.00
72262;BME280;60173;52.112;8.648;2022-10-16T04:01:00;100194.28;;;10.43;100.00
72262;BME280;60173;52.112;8.648;2022-10-16T04:03:26;100187.63;;;10.49;100.00
72262;BME280;60173;52.112;8.648;2022-10-16T04:05:53;100192.34;;;10.57;100.00
72262;BME280;60173;52.112;8.648;2022-10-16T04:08:20;100189.41;;;10.67;100.00
72262;BME280;60173;52.112;8.648;2022-10-16T04:10:46;100192.94;;;10.68;100.00
72262;BME280;60173;52.112;8.648;2022-10-16T04:13:13;100188.22;;;10.73;100.00
72262;BME280;60173;52.112;8.648;2022-10-16T04:15:39;100181.34;;;10.76;100.00
72262;BME280;60173;52.112;8.648;2022-10-16T04:18:06;100176.41;;;10.78;100.00
72262;BME280;60173;52.112;8.648;2022-10-16T04:20:33;100181.16;;;10.72;100.00
72262;BME280;60173;52.112;8.648;2022-10-16T04:22:59;100177.72;;;10.80;100.00
72262;BME280;60173;52.112;8.648;2022-10-16T04:25:26;100182.34;;;10.80;100.00
72262;BME280;60173;52.112;8.648;2022-10-16T04:27:53;100190.69;;;10.83;100.00
72262;BME280;60173;52.112;8.648;2022-10-16T04:30:20;100202.34;;;10.84;100.00
72262;BME280;60173;52.112;8.648;2022-10-16T04:32:52;100200.22;;;10.95;100.00
72262;BME280;60173;52.112;8.648;2022-10-16T04:35:20;100195.16;;;11.02;100.00
72262;BME280;60173;52.112;8.648;2022-10-16T04:37:46;100196.16;;;11.06;100.00
72262;BME280;60173;52.112;8.648;2022-10-16T04:40:13;100211.59;;;11.19;100.00
72262;BME280;60173;52.112;8.648;2022-10-16T04:42:40;100203.13;;;11.21;100.00
72262;BME280;60173;52.112;8.648;2022-10-16T04:45:06;100219.63;;;11.24;100.00
72262;BME280;60173;52.112;8.648;2022-10-16T04:47:37;100218.59;;;11.34;100.00
72262;BME280;60173;52.112;8.648;2022-10-16T04:50:04;100208.25;;;11.45;100.00
72262;BME280;60173;52.112;8.648;2022-10-16T04:52:30;100223.97;;;11.48;100.00
72262;BME280;60173;52.112;8.648;2022-10-16T04:54:57;100225.50;;;11.63;100.00
72262;BME280;60173;52.112;8.648;2022-10-16T04:57:24;100222.03;;;11.71;100.00
72262;BME280;60173;52.112;8.648;2022-10-16T04:59:50;100226.66;;;11.70;100.00
72262;BME280;60173;52.112;8.648;2022-10-16T05:02:17;100235.16;;;11.69;99.46
72262;BME280;60173;52.112;8.648;2022-10-16T05:04:43;100235.69;;;11.80;99.34
72262;BME280;60173;52.112;8.648;2022-10-16T05:07:09;100231.66;;;11.77;99.23
72262;BME280;60173;52.112;8.648;2022-10-16T05:09:36;100237.69;;;11.88;99.00
72262;BME280;60173;52.112;8.648;2022-10-16T05:12:03;100236.69;;;11.84;98.60
72262;BME280;60173;52.112;8.648;2022-10-16T05:14:29;100237.47;;;11.84;98.53
72262;BME280;60173;52.112;8.648;2022-10-16T05:16:55;100233.47;;;11.82;98.60
72262;BME280;60173;52.112;8.648;2022-10-16T05:19:22;100241.88;;;11.94;98.35
72262;BME280;60173;52.112;8.648;2022-10-16T05:21:53;100236.38;;;11.85;98.27
72262;BME280;60173;52.112;8.648;2022-10-16T05:24:20;100237.06;;;11.91;98.14
72262;BME280;60173;52.112;8.648;2022-10-16T05:26:46;100248.19;;;11.81;98.08
72262;BME280;60173;52.112;8.648;2022-10-16T05:29:12;100241.13;;;11.80;98.16
72262;BME280;60173;52.112;8.648;2022-10-16T05:31:38;100255.47;;;11.71;98.12
72262;BME280;60173;52.112;8.648;2022-10-16T05:34:05;100242.00;;;11.66;98.32
72262;BME280;60173;52.112;8.648;2022-10-16T05:36:31;100243.63;;;11.67;97.97
72262;BME280;60173;52.112;8.648;2022-10-16T05:38:58;100245.41;;;11.72;97.84
72262;BME280;60173;52.112;8.648;2022-10-16T05:41:24;100248.31;;;11.75;97.98
72262;BME280;60173;52.112;8.648;2022-10-16T05:43:50;100244.41;;;11.68;97.80
72262;BME280;60173;52.112;8.648;2022-10-16T05:46:19;100242.81;;;11.67;97.67
72262;BME280;60173;52.112;8.648;2022-10-16T05:48:45;100238.97;;;11.68;97.70
72262;BME280;60173;52.112;8.648;2022-10-16T05:51:13;100243.63;;;11.67;97.60
72262;BME280;60173;52.112;8.648;2022-10-16T05:53:41;100259.19;;;11.53;97.62
72262;BME280;60173;52.112;8.648;2022-10-16T05:56:10;100264.81;;;11.57;97.74
72262;BME280;60173;52.112;8.648;2022-10-16T05:58:37;100274.50;;;11.71;97.30
72262;BME280;60173;52.112;8.648;2022-10-16T06:01:06;100278.13;;;11.81;96.75
72262;BME280;60173;52.112;8.648;2022-10-16T06:03:34;100275.78;;;11.88;96.29
72262;BME280;60173;52.112;8.648;2022-10-16T06:06:17;100280.31;;;11.92;95.94
72262;BME280;60173;52.112;8.648;2022-10-16T06:08:44;100284.44;;;11.90;95.58
72262;BME280;60173;52.112;8.648;2022-10-16T06:11:13;100284.16;;;12.00;95.10
72262;BME280;60173;52.112;8.648;2022-10-16T06:13:40;100288.81;;;11.99;94.70
72262;BME280;60173;52.112;8.648;2022-10-16T06:16:07;100284.84;;;12.06;94.16
72262;BME280;60173;52.112;8.648;2022-10-16T06:18:34;100284.72;;;12.11;94.26
72262;BME280;60173;52.112;8.648;2022-10-16T06:21:09;100284.88;;;12.14;93.86
72262;BME280;60173;52.112;8.648;2022-10-16T06:23:36;100297.25;;;12.20;93.13
72262;BME280;60173;52.112;8.648;2022-10-16T06:26:11;100296.31;;;12.25;92.95
72262;BME280;60173;52.112;8.648;2022-10-16T06:28:38;100300.78;;;12.21;93.09
72262;BME280;60173;52.112;8.648;2022-10-16T06:31:06;100303.09;;;12.36;93.06
72262;BME280;60173;52.112;8.648;2022-10-16T06:33:34;100304.91;;;12.50;92.15
72262;BME280;60173;52.112;8.648;2022-10-16T06:36:02;100313.34;;;12.71;91.62
72262;BME280;60173;52.112;8.648;2022-10-16T06:38:29;100303.56;;;12.78;90.71
72262;BME280;60173;52.112;8.648;2022-10-16T06:40:56;100302.50;;;12.97;90.00
72262;BME280;60173;52.112;8.648;2022-10-16T06:43:23;100311.31;;;12.85;90.00
72262;BME280;60173;52.112;8.648;2022-10-16T06:45:53;100311.31;;;12.85;90.05
72262;BME280;60173;52.112;8.648;2022-10-16T06:48:21;100314.34;;;12.92;89.83
72262;BME280;60173;52.112;8.648;2022-10-16T06:53:28;100329.41;;;12.89;89.87
72262;BME280;60173;52.112;8.648;2022-10-16T06:55:54;100336.50;;;12.99;89.40
72262;BME280;60173;52.112;8.648;2022-10-16T06:58:21;100338.59;;;13.02;89.21
72262;BME280;60173;52.112;8.648;2022-10-16T07:00:48;100339.91;;;13.14;88.43
72262;BME280;60173;52.112;8.648;2022-10-16T07:03:14;100342.63;;;13.14;88.20
72262;BME280;60173;52.112;8.648;2022-10-16T07:05:42;100352.97;;;13.25;88.11
72262;BME280;60173;52.112;8.648;2022-10-16T07:08:08;100352.44;;;13.23;87.61
72262;BME280;60173;52.112;8.648;2022-10-16T07:10:35;100357.78;;;13.37;87.61
72262;BME280;60173;52.112;8.648;2022-10-16T07:13:01;100354.59;;;13.52;86.59
72262;BME280;60173;52.112;8.648;2022-10-16T07:15:28;100359.41;;;13.73;86.31
72262;BME280;60173;52.112;8.648;2022-10-16T07:17:54;100371.13;;;13.82;85.79
72262;BME280;60173;52.112;8.648;2022-10-16T07:20:20;100367.59;;;13.90;85.50
72262;BME280;60173;52.112;8.648;2022-10-16T07:22:47;100367.09;;;13.88;85.23
72262;BME280;60173;52.112;8.648;2022-10-16T07:25:13;100366.28;;;14.05;84.23
72262;BME280;60173;52.112;8.648;2022-10-16T07:27:39;100367.88;;;14.15;84.27
72262;BME280;60173;52.112;8.648;2022-10-16T07:30:06;100378.63;;;14.20;84.34
72262;BME280;60173;52.112;8.648;2022-10-16T07:32:34;100374.56;;;14.35;84.07
72262;BME280;60173;52.112;8.648;2022-10-16T07:35:01;100385.66;;;14.56;82.50
72262;BME280;60173;52.112;8.648;2022-10-16T07:37:27;100392.06;;;14.42;82.37
72262;BME280;60173;52.112;8.648;2022-10-16T07:39:54;100392.22;;;14.46;82.70
72262;BME280;60173;52.112;8.648;2022-10-16T07:42:20;100404.59;;;14.43;82.67
72262;BME280;60173;52.112;8.648;2022-10-16T07:44:46;100418.44;;;14.56;82.07
72262;BME280;60173;52.112;8.648;2022-10-16T07:47:13;100421.81;;;14.44;81.98
72262;BME280;60173;52.112;8.648;2022-10-16T07:49:39;100420.38;;;14.46;82.01
72262;BME280;60173;52.112;8.648;2022-10-16T07:52:05;100429.03;;;14.48;82.86
72262;BME280;60173;52.112;8.648;2022-10-16T07:54:32;100435.94;;;14.55;82.71
72262;BME280;60173;52.112;8.648;2022-10-16T07:56:58;100435.66;;;14.30;82.92
72262;BME280;60173;52.112;8.648;2022-10-16T07:59:25;100445.31;;;14.28;83.35
72262;BME280;60173;52.112;8.648;2022-10-16T08:01:51;100440.00;;;14.14;83.09
72262;BME280;60173;52.112;8.648;2022-10-16T08:04:17;100442.28;;;14.12;83.41
72262;BME280;60173;52.112;8.648;2022-10-16T08:06:44;100444.53;;;14.10;83.83
72262;BME280;60173;52.112;8.648;2022-10-16T08:09:10;100448.69;;;14.33;81.95
72262;BME280;60173;52.112;8.648;2022-10-16T08:11:36;100443.69;;;14.35;82.24
72262;BME280;60173;52.112;8.648;2022-10-16T08:14:03;100444.63;;;14.48;82.02
72262;BME280;60173;52.112;8.648;2022-10-16T08:16:29;100450.56;;;14.67;81.50
72262;BME280;60173;52.112;8.648;2022-10-16T08:18:55;100447.34;;;14.74;80.79
72262;BME280;60173;52.112;8.648;2022-10-16T08:21:22;100456.47;;;14.87;80.69
72262;BME280;60173;52.112;8.648;2022-10-16T08:23:50;100465.28;;;14.92;80.41
72262;BME280;60173;52.112;8.648;2022-10-16T08:26:23;100460.63;;;14.93;80.13
72262;BME280;60173;52.112;8.648;2022-10-16T08:28:50;100469.25;;;15.04;79.54
72262;BME280;60173;52.112;8.648;2022-10-16T08:31:17;100468.44;;;15.12;79.65
72262;BME280;60173;52.112;8.648;2022-10-16T08:33:48;100470.00;;;15.22;79.51
72262;BME280;60173;52.112;8.648;2022-10-16T08:36:15;100478.38;;;15.25;79.05
72262;BME280;60173;52.112;8.648;2022-10-16T08:38:41;100474.97;;;15.28;78.55
72262;BME280;60173;52.112;8.648;2022-10-16T08:47:05;100498.06;;;15.48;79.00
72262;BME280;60173;52.112;8.648;2022-10-16T08:52:29;100496.97;;;15.70;77.86
72262;BME280;60173;52.112;8.648;2022-10-16T08:54:57;100503.59;;;15.69;77.17
72262;BME280;60173;52.112;8.648;2022-10-16T08:57:25;100492.78;;;15.73;76.40
72262;BME280;60173;52.112;8.648;2022-10-16T08:59:53;100504.59;;;15.56;77.45
72262;BME280;60173;52.112;8.648;2022-10-16T09:02:43;100499.91;;;15.65;77.25
72262;BME280;60173;52.112;8.648;2022-10-16T09:08:00;100510.09;;;15.86;75.54
72262;BME280;60173;52.112;8.648;2022-10-16T09:10:58;100515.19;;;15.96;75.04
72262;BME280;60173;52.112;8.648;2022-10-16T09:13:40;100517.19;;;15.87;75.35
72262;BME280;60173;52.112;8.648;2022-10-16T09:16:32;100520.66;;;15.96;75.87
72262;BME280;60173;52.112;8.648;2022-10-16T09:19:09;100537.16;;;16.08;75.79
72262;BME280;60173;52.112;8.648;2022-10-16T09:21:42;100532.22;;;16.22;73.96
72262;BME280;60173;52.112;8.648;2022-10-16T09:24:21;100521.94;;;16.19;73.66
72262;BME280;60173;52.112;8.648;2022-10-16T09:26:54;100527.16;;;16.12;74.29
72262;BME280;60173;52.112;8.648;2022-10-16T09:29:21;100522.94;;;16.36;72.97
72262;BME280;60173;52.112;8.648;2022-10-16T09:31:47;100525.50;;;16.41;72.77
72262;BME280;60173;52.112;8.648;2022-10-16T09:34:33;100528.47;;;16.48;72.12
72262;BME280;60173;52.112;8.648;2022-10-16T09:37:03;100525.41;;;16.49;71.73
72262;BME280;60173;52.112;8.648;2022-10-16T09:39:30;100531.94;;;16.57;71.60
72262;BME280;60173;52.112;8.648;2022-10-16T09:42:14;100533.41;;;16.55;71.97
72262;BME280;60173;52.112;8.648;2022-10-16T09:44:41;100538.63;;;16.68;71.14
72262;BME280;60173;52.112;8.648;2022-10-16T09:47:25;100532.59;;;16.75;71.68
72262;BME280;60173;52.112;8.648;2022-10-16T09:49:58;100529.00;;;16.62;69.99
72262;BME280;60173;52.112;8.648;2022-10-16T09:52:25;100528.06;;;16.58;70.90
72262;BME280;60173;52.112;8.648;2022-10-16T09:54:54;100545.50;;;16.75;69.99
72262;BME280;60173;52.112;8.648;2022-10-16T09:57:21;100548.34;;;16.99;69.97
72262;BME280;60173;52.112;8.648;2022-10-16T10:02:29;100549.06;;;17.21;68.21
72262;BME280;60173;52.112;8.648;2022-10-16T10:04:56;100549.91;;;17.33;67.72
72262;BME280;60173;52.112;8.648;2022-10-16T10:07:37;100562.16;;;17.36;66.30
72262;BME280;60173;52.112;8.648;2022-10-16T10:10:06;100563.75;;;17.25;66.89
72262;BME280;60173;52.112;8.648;2022-10-16T10:12:45;100560.38;;;17.07;67.20
72262;BME280;60173;52.112;8.648;2022-10-16T10:15:13;100574.00;;;17.15;67.26
72262;BME280;60173;52.112;8.648;2022-10-16T10:17:51;100579.16;;;17.29;67.24
72262;BME280;60173;52.112;8.648;2022-10-16T10:20:25;100577.13;;;17.38;66.02
72262;BME280;60173;52.112;8.648;2022-10-16T10:22:52;100581.38;;;17.48;66.04
72262;BME280;60173;52.112;8.648;2022-10-16T10:28:14;100586.94;;;17.85;65.70
72262;BME280;60173;52.112;8.648;2022-10-16T10:35:55;100589.19;;;17.71;64.08
72262;BME280;60173;52.112;8.648;2022-10-16T10:38:49;100586.19;;;17.76;64.01
72262;BME280;60173;52.112;8.648;2022-10-16T10:55:29;100599.13;;;18.65;62.02
72262;BME280;60173;52.112;8.648;2022-10-16T11:01:24;100597.16;;;18.25;62.52
72262;BME280;60173;52.112;8.648;2022-10-16T11:03:56;100604.63;;;18.24;61.84
72262;BME280;60173;52.112;8.648;2022-10-16T11:06:30;100602.25;;;18.23;62.19
72262;BME280;60173;52.112;8.648;2022-10-16T11:11:48;100597.50;;;18.36;61.12
72262;BME280;60173;52.112;8.648;2022-10-16T11:14:28;100600.19;;;17.95;61.79
72262;BME280;60173;52.112;8.648;2022-10-16T11:17:01;100600.66;;;17.85;63.16
72262;BME280;60173;52.112;8.648;2022-10-16T11:24:48;100607.91;;;18.55;61.17
72262;BME280;60173;52.112;8.648;2022-10-16T11:27:23;100606.94;;;18.75;60.67
72262;BME280;60173;52.112;8.648;2022-10-16T11:29:55;100613.44;;;18.70;60.18
72262;BME280;60173;52.112;8.648;2022-10-16T11:32:32;100617.69;;;18.80;60.89
72262;BME280;60173;52.112;8.648;2022-10-16T11:35:07;100624.22;;;18.23;60.59
72262;BME280;60173;52.112;8.648;2022-10-16T11:37:43;100612.66;;;17.68;61.76
72262;BME280;60173;52.112;8.648;2022-10-16T11:40:25;100613.72;;;17.30;62.37
72262;BME280;60173;52.112;8.648;2022-10-16T11:43:02;100620.81;;;17.31;62.40
72262;BME280;60173;52.112;8.648;2022-10-16T11:45:39;100621.56;;;17.07;62.36
72262;BME280;60173;52.112;8.648;2022-10-16T11:55:49;100624.88;;;17.13;62.36
72262;BME280;60173;52.112;8.648;2022-10-16T11:58:41;100629.88;;;17.44;61.85
72262;BME280;60173;52.112;8.648;2022-10-16T12:01:18;100627.88;;;17.78;59.48
72262;BME280;60173;52.112;8.648;2022-10-16T12:09:15;100623.78;;;18.09;60.08
72262;BME280;60173;52.112;8.648;2022-10-16T12:11:45;100629.03;;;18.14;59.86
72262;BME280;60173;52.112;8.648;2022-10-16T12:19:17;100640.91;;;18.42;59.41
72262;BME280;60173;52.112;8.648;2022-10-16T12:21:45;100636.34;;;18.34;59.34
72262;BME280;60173;52.112;8.648;2022-10-16T12:24:43;100646.19;;;18.35;60.19
72262;BME280;60173;52.112;8.648;2022-10-16T12:27:29;100642.09;;;18.29;58.22
72262;BME280;60173;52.112;8.648;2022-10-16T12:29:58;100646.44;;;18.30;59.13
72262;BME280;60173;52.112;8.648;2022-10-16T12:32:34;100654.66;;;18.55;59.85
72262;BME280;60173;52.112;8.648;2022-10-16T12:35:20;100647.63;;;18.57;57.92
72262;BME280;60173;52.112;8.648;2022-10-16T12:37:47;100653.69;;;18.63;57.17
72262;BME280;60173;52.112;8.648;2022-10-16T12:40:23;100654.06;;;18.61;58.02
72262;BME280;60173;52.112;8.648;2022-10-16T12:42:52;100646.47;;;18.70;58.34
72262;BME280;60173;52.112;8.648;2022-10-16T12:45:32;100647.25;;;18.71;58.77
72262;BME280;60173;52.112;8.648;2022-10-16T12:48:01;100653.66;;;18.87;57.26
72262;BME280;60173;52.112;8.648;2022-10-16T12:52:57;100664.53;;;18.96;56.54
72262;BME280;60173;52.112;8.648;2022-10-16T12:55:24;100656.44;;;19.15;57.37
72262;BME280;60173;52.112;8.648;2022-10-16T12:58:14;100654.66;;;19.23;56.90
72262;BME280;60173;52.112;8.648;2022-10-16T13:03:47;100666.13;;;19.25;56.62
72262;BME280;60173;52.112;8.648;2022-10-16T13:06:25;100671.72;;;19.29;56.44
72262;BME280;60173;52.112;8.648;2022-10-16T13:09:20;100668.69;;;19.18;57.34
72262;BME280;60173;52.112;8.648;2022-10-16T13:14:41;100674.44;;;19.13;56.83
72262;BME280;60173;52.112;8.648;2022-10-16T13:23:14;100676.25;;;19.21;56.76
72262;BME280;60173;52.112;8.648;2022-10-16T13:28:34;100683.91;;;19.43;56.74
72262;BME280;60173;52.112;8.648;2022-10-16T13:31:02;100689.00;;;19.41;56.58
72262;BME280;60173;52.112;8.648;2022-10-16T13:33:39;100692.56;;;19.42;56.32
72262;BME280;60173;52.112;8.648;2022-10-16T13:36:06;100699.41;;;18.92;57.57
72262;BME280;60173;52.112;8.648;2022-10-16T13:38:35;100707.31;;;18.93;58.46
72262;BME280;60173;52.112;8.648;2022-10-16T13:41:14;100703.34;;;18.79;58.53
72262;BME280;60173;52.112;8.648;2022-10-16T13:43:51;100705.94;;;18.87;58.25
72262;BME280;60173;52.112;8.648;2022-10-16T13:46:23;100700.34;;;19.12;58.93
72262;BME280;60173;52.112;8.648;2022-10-16T13:49:02;100702.41;;;19.15;57.63
72262;BME280;60173;52.112;8.648;2022-10-16T13:51:29;100692.25;;;19.31;57.62
72262;BME280;60173;52.112;8.648;2022-10-16T13:53:57;100700.25;;;19.36;57.21
72262;BME280;60173;52.112;8.648;2022-10-16T13:56:29;100705.06;;;19.39;57.34
72262;BME280;60173;52.112;8.648;2022-10-16T13:59:05;100706.56;;;19.09;57.79
72262;BME280;60173;52.112;8.648;2022-10-16T14:01:34;100714.22;;;18.87;57.12
72262;BME280;60173;52.112;8.648;2022-10-16T14:04:08;100715.13;;;18.79;57.08
72262;BME280;60173;52.112;8.648;2022-10-16T14:06:36;100711.69;;;18.70;57.36
72262;BME280;60173;52.112;8.648;2022-10-16T14:09:20;100709.31;;;18.56;58.64
72262;BME280;60173;52.112;8.648;2022-10-16T14:11:49;100708.38;;;18.40;59.07
72262;BME280;60173;52.112;8.648;2022-10-16T14:14:17;100707.59;;;18.39;60.02
72262;BME280;60173;52.112;8.648;2022-10-16T14:16:43;100712.41;;;18.42;60.56
72262;BME280;60173;52.112;8.648;2022-10-16T14:19:19;100724.56;;;18.41;59.50
72262;BME280;60173;52.112;8.648;2022-10-16T14:21:46;100725.47;;;18.33;59.77
72262;BME280;60173;52.112;8.648;2022-10-16T14:24:39;100720.88;;;18.25;60.37
72262;BME280;60173;52.112;8.648;2022-10-16T14:27:27;100720.66;;;18.18;61.26
72262;BME280;60173;52.112;8.648;2022-10-16T14:30:14;100729.03;;;18.21;60.96
72262;BME280;60173;52.112;8.648;2022-10-16T14:32:42;100723.41;;;18.18;60.93
72262;BME280;60173;52.112;8.648;2022-10-16T14:35:44;100718.81;;;17.97;61.03
72262;BME280;60173;52.112;8.648;2022-10-16T14:38:19;100716.06;;;17.97;60.96